createdAt,value
2022-09-15T00:00:31.531Z,985.4362308000001
2022-09-15T00:01:31.751Z,985.334639436
2022-09-15T00:02:31.878Z,985.4362308000001
2022-09-15T00:03:31.685Z,985.2330480720001
2022-09-15T00:04:31.475Z,985.4362308000001
2022-09-15T00:05:31.637Z,985.334639436
2022-09-15T00:06:31.651Z,985.334639436
2022-09-15T00:07:31.696Z,985.4362308000001
2022-09-15T00:08:31.461Z,985.4362308000001
2022-09-15T00:09:31.674Z,985.2330480720001
2022-09-15T00:10:31.650Z,985.2330480720001
2022-09-15T00:11:31.672Z,985.334639436
2022-09-15T00:12:31.488Z,985.334639436
2022-09-15T00:13:31.649Z,985.4362308000001
2022-09-15T00:14:31.665Z,985.334639436
2022-09-15T00:15:31.968Z,985.2330480720001
2022-09-15T00:16:31.511Z,985.334639436
2022-09-15T00:17:31.673Z,985.4362308000001
2022-09-15T00:18:31.669Z,985.334639436
2022-09-15T00:19:31.651Z,985.1314567080001
2022-09-15T00:20:31.416Z,985.2330480720001
2022-09-15T00:21:31.709Z,985.2330480720001
2022-09-15T00:22:31.659Z,985.2330480720001
2022-09-15T00:23:31.664Z,985.1314567080001
2022-09-15T00:24:31.442Z,985.334639436
2022-09-15T00:25:31.628Z,985.1314567080001
2022-09-15T00:26:31.750Z,985.2330480720001
2022-09-15T00:27:31.666Z,985.1314567080001
2022-09-15T00:28:31.446Z,985.4362308000001
2022-09-15T00:29:31.649Z,985.2330480720001
2022-09-15T00:30:32.092Z,985.4362308000001
2022-09-15T00:31:31.671Z,985.029865344
2022-09-15T00:32:31.456Z,985.1314567080001
2022-09-15T00:33:31.745Z,985.1314567080001
2022-09-15T00:34:31.644Z,985.2330480720001
2022-09-15T00:35:31.621Z,985.1314567080001
2022-09-15T00:36:31.436Z,985.2330480720001
2022-09-15T00:37:31.673Z,985.334639436
2022-09-15T00:38:31.710Z,985.1314567080001
2022-09-15T00:39:31.653Z,985.1314567080001
2022-09-15T00:40:31.519Z,985.029865344
2022-09-15T00:41:31.644Z,985.1314567080001
2022-09-15T00:42:31.669Z,985.2330480720001
2022-09-15T00:43:31.619Z,985.1314567080001
2022-09-15T00:44:31.430Z,985.029865344
2022-09-15T00:45:31.740Z,985.1314567080001
2022-09-15T00:46:31.655Z,984.8266826160001
2022-09-15T00:47:31.643Z,984.8266826160001
2022-09-15T00:48:31.562Z,984.8266826160001
2022-09-15T00:49:31.660Z,985.029865344
2022-09-15T00:50:31.665Z,985.1314567080001
2022-09-15T00:51:31.630Z,985.029865344
2022-09-15T00:52:31.405Z,985.029865344
2022-09-15T00:53:31.661Z,985.029865344
2022-09-15T00:54:31.660Z,985.029865344
2022-09-15T00:55:31.633Z,984.8266826160001
2022-09-15T00:56:31.426Z,984.9282739800001
2022-09-15T00:57:31.652Z,984.9282739800001
2022-09-15T00:58:31.629Z,984.9282739800001
2022-09-15T00:59:31.638Z,984.9282739800001
2022-09-15T01:00:31.421Z,985.029865344
2022-09-15T01:01:31.738Z,984.8266826160001
2022-09-15T01:02:31.736Z,984.9282739800001
2022-09-15T01:03:31.632Z,984.8266826160001
2022-09-15T01:04:31.430Z,984.8266826160001
2022-09-15T01:05:31.655Z,984.8266826160001
2022-09-15T01:06:31.648Z,984.8266826160001
2022-09-15T01:07:31.625Z,984.9282739800001
2022-09-15T01:08:31.411Z,984.8266826160001
2022-09-15T01:09:31.641Z,984.9282739800001
2022-09-15T01:10:31.647Z,984.8266826160001
2022-09-15T01:11:31.644Z,984.725091252
2022-09-15T01:12:31.442Z,984.9282739800001
2022-09-15T01:13:31.727Z,984.9282739800001
2022-09-15T01:14:31.663Z,984.725091252
2022-09-15T01:15:31.630Z,984.725091252
2022-09-15T01:16:31.502Z,984.8266826160001
2022-09-15T01:17:31.652Z,985.029865344
2022-09-15T01:18:31.655Z,984.9282739800001
2022-09-15T01:19:31.635Z,984.725091252
2022-09-15T01:20:31.370Z,984.725091252
2022-09-15T01:21:31.654Z,984.8266826160001
2022-09-15T01:22:31.619Z,984.623499888
2022-09-15T01:23:31.663Z,984.725091252
2022-09-15T01:24:31.361Z,984.8266826160001
2022-09-15T01:25:31.678Z,984.8266826160001
2022-09-15T01:26:31.641Z,984.9282739800001
2022-09-15T01:27:41.961Z,984.623499888
2022-09-15T01:28:31.384Z,984.725091252
2022-09-15T01:29:31.633Z,984.725091252
2022-09-15T01:30:31.628Z,984.725091252
2022-09-15T01:31:31.690Z,984.9282739800001
2022-09-15T01:32:31.399Z,984.115543068
2022-09-15T01:33:31.669Z,984.217134432
2022-09-15T01:34:31.646Z,984.115543068
2022-09-15T01:35:31.645Z,984.217134432
2022-09-15T01:36:31.361Z,984.318725796
2022-09-15T01:37:31.647Z,984.013951704
2022-09-15T01:38:31.681Z,984.318725796
2022-09-15T01:39:31.632Z,984.318725796
2022-09-15T01:40:31.549Z,984.42031716
2022-09-15T01:41:31.778Z,984.115543068
2022-09-15T01:42:31.793Z,984.318725796
2022-09-15T01:43:31.762Z,984.318725796
2022-09-15T01:44:31.478Z,984.217134432
2022-09-15T01:45:31.825Z,984.725091252
2022-09-15T01:46:31.733Z,984.8266826160001
2022-09-15T01:47:32.231Z,985.1314567080001
2022-09-15T01:48:31.374Z,984.725091252
2022-09-15T01:49:31.640Z,984.42031716
2022-09-15T01:50:31.622Z,984.8266826160001
2022-09-15T01:51:31.635Z,984.8266826160001
2022-09-15T01:52:31.325Z,984.725091252
2022-09-15T01:53:31.647Z,984.623499888
2022-09-15T01:54:31.642Z,984.623499888
2022-09-15T01:55:31.647Z,984.9282739800001
2022-09-15T01:56:31.323Z,984.725091252
2022-09-15T01:57:31.651Z,984.623499888
2022-09-15T01:58:31.640Z,984.725091252
2022-09-15T01:59:31.631Z,984.725091252
2022-09-15T02:00:31.366Z,984.8266826160001
2022-09-15T02:01:31.808Z,984.8266826160001
2022-09-15T02:02:31.726Z,984.725091252
2022-09-15T02:03:31.710Z,984.8266826160001
2022-09-15T02:04:31.332Z,984.623499888
2022-09-15T02:05:31.656Z,984.725091252
2022-09-15T02:06:31.654Z,984.725091252
2022-09-15T02:07:31.686Z,984.8266826160001
2022-09-15T02:08:31.370Z,984.623499888
2022-09-15T02:09:31.649Z,984.725091252
2022-09-15T02:10:31.657Z,984.725091252
2022-09-15T02:11:31.634Z,984.623499888
2022-09-15T02:12:31.299Z,984.623499888
2022-09-15T02:13:31.664Z,984.623499888
2022-09-15T02:14:31.636Z,984.8266826160001
2022-09-15T02:15:31.764Z,984.5219085240001
2022-09-15T02:16:31.414Z,984.623499888
2022-09-15T02:17:31.643Z,984.725091252
2022-09-15T02:18:31.637Z,984.725091252
2022-09-15T02:19:31.663Z,984.8266826160001
2022-09-15T02:20:31.369Z,984.623499888
2022-09-15T02:21:31.650Z,984.623499888
2022-09-15T02:22:31.645Z,984.5219085240001
2022-09-15T02:23:31.685Z,984.5219085240001
2022-09-15T02:24:31.278Z,984.318725796
2022-09-15T02:25:31.607Z,984.623499888
2022-09-15T02:26:31.627Z,984.623499888
2022-09-15T02:27:31.664Z,984.5219085240001
2022-09-15T02:28:31.281Z,984.5219085240001
2022-09-15T02:29:31.689Z,984.5219085240001
2022-09-15T02:30:31.650Z,984.42031716
2022-09-15T02:31:31.752Z,984.42031716
2022-09-15T02:32:31.298Z,984.318725796
2022-09-15T02:33:31.665Z,984.623499888
2022-09-15T02:34:31.636Z,984.5219085240001
2022-09-15T02:35:31.647Z,984.8266826160001
2022-09-15T02:36:31.287Z,984.5219085240001
2022-09-15T02:37:31.688Z,984.5219085240001
2022-09-15T02:38:31.606Z,984.5219085240001
2022-09-15T02:39:31.669Z,984.5219085240001
2022-09-15T02:40:31.455Z,984.42031716
2022-09-15T02:41:31.626Z,984.5219085240001
2022-09-15T02:42:31.639Z,984.42031716
2022-09-15T02:43:31.693Z,984.42031716
2022-09-15T02:44:31.281Z,984.5219085240001
2022-09-15T02:45:31.823Z,984.5219085240001
2022-09-15T02:46:31.634Z,984.318725796
2022-09-15T02:47:31.627Z,984.5219085240001
2022-09-15T02:48:31.272Z,984.5219085240001
2022-09-15T02:49:31.629Z,984.42031716
2022-09-15T02:50:31.625Z,984.42031716
2022-09-15T02:51:31.618Z,984.42031716
2022-09-15T02:52:31.413Z,984.5219085240001
2022-09-15T02:53:31.640Z,984.5219085240001
2022-09-15T02:54:31.609Z,984.42031716
2022-09-15T02:55:31.628Z,984.5219085240001
2022-09-15T02:56:31.257Z,984.318725796
2022-09-15T02:57:31.642Z,984.217134432
2022-09-15T02:58:31.617Z,984.42031716
2022-09-15T02:59:31.662Z,984.318725796
2022-09-15T03:00:31.485Z,984.318725796
2022-09-15T03:01:31.623Z,984.217134432
2022-09-15T03:02:31.717Z,984.217134432
2022-09-15T03:03:31.617Z,984.318725796
2022-09-15T03:04:31.265Z,984.318725796
2022-09-15T03:05:31.655Z,984.217134432
2022-09-15T03:06:31.596Z,984.5219085240001
2022-09-15T03:07:31.659Z,984.318725796
2022-09-15T03:08:31.283Z,984.115543068
2022-09-15T03:09:31.761Z,984.217134432
2022-09-15T03:10:31.643Z,984.217134432
2022-09-15T03:11:31.768Z,984.115543068
2022-09-15T03:12:31.543Z,984.318725796
2022-09-15T03:13:31.751Z,984.318725796
2022-09-15T03:14:31.772Z,984.42031716
2022-09-15T03:15:31.623Z,984.42031716
2022-09-15T03:16:31.423Z,984.217134432
2022-09-15T03:17:31.761Z,984.217134432
2022-09-15T03:18:31.774Z,984.5219085240001
2022-09-15T03:19:31.696Z,984.217134432
2022-09-15T03:20:31.376Z,984.42031716
2022-09-15T03:21:31.774Z,984.217134432
2022-09-15T03:22:31.699Z,984.217134432
2022-09-15T03:23:31.626Z,984.115543068
2022-09-15T03:24:31.445Z,984.013951704
2022-09-15T03:25:31.738Z,984.115543068
2022-09-15T03:26:31.684Z,984.217134432
2022-09-15T03:27:31.792Z,984.115543068
2022-09-15T03:28:31.354Z,984.318725796
2022-09-15T03:29:31.795Z,984.013951704
2022-09-15T03:30:31.702Z,984.013951704
2022-09-15T03:31:31.695Z,984.318725796
2022-09-15T03:32:31.198Z,984.013951704
2022-09-15T03:33:31.651Z,984.013951704
2022-09-15T03:34:31.624Z,984.115543068
2022-09-15T03:35:31.613Z,983.810768976
2022-09-15T03:36:31.299Z,984.115543068
2022-09-15T03:37:31.634Z,984.217134432
2022-09-15T03:38:31.588Z,984.115543068
2022-09-15T03:39:31.607Z,984.115543068
2022-09-15T03:40:31.330Z,984.013951704
2022-09-15T03:41:31.623Z,983.810768976
2022-09-15T03:42:31.716Z,984.013951704
2022-09-15T03:43:31.657Z,984.115543068
2022-09-15T03:44:31.238Z,984.115543068
2022-09-15T03:45:31.708Z,984.013951704
2022-09-15T03:46:31.609Z,983.91236034
2022-09-15T03:47:31.671Z,984.013951704
2022-09-15T03:48:31.202Z,983.91236034
2022-09-15T03:49:31.654Z,984.115543068
2022-09-15T03:50:31.643Z,983.91236034
2022-09-15T03:51:31.622Z,984.115543068
2022-09-15T03:52:31.218Z,983.91236034
2022-09-15T03:53:31.645Z,983.91236034
2022-09-15T03:54:31.615Z,983.91236034
2022-09-15T03:55:31.640Z,983.810768976
2022-09-15T03:56:31.189Z,983.810768976
2022-09-15T03:57:31.640Z,984.013951704
2022-09-15T03:58:31.612Z,984.115543068
2022-09-15T03:59:31.683Z,984.013951704
2022-09-15T04:00:32.865Z,984.013951704
2022-09-15T04:01:31.889Z,983.810768976
2022-09-15T04:02:31.629Z,983.810768976
2022-09-15T04:03:31.640Z,984.013951704
2022-09-15T04:04:31.233Z,984.013951704
2022-09-15T04:05:31.621Z,983.91236034
2022-09-15T04:06:31.616Z,983.91236034
2022-09-15T04:07:31.618Z,983.91236034
2022-09-15T04:08:31.195Z,983.91236034
2022-09-15T04:09:31.645Z,983.709177612
2022-09-15T04:10:31.621Z,983.709177612
2022-09-15T04:11:31.643Z,984.115543068
2022-09-15T04:12:31.225Z,983.91236034
2022-09-15T04:13:31.644Z,983.810768976
2022-09-15T04:14:31.608Z,983.91236034
2022-09-15T04:15:31.617Z,983.810768976
2022-09-15T04:16:31.291Z,983.91236034
2022-09-15T04:17:31.643Z,983.709177612
2022-09-15T04:18:31.691Z,983.810768976
2022-09-15T04:19:31.676Z,983.810768976
2022-09-15T04:20:31.176Z,983.810768976
2022-09-15T04:21:31.698Z,983.810768976
2022-09-15T04:22:31.616Z,983.810768976
2022-09-15T04:23:31.652Z,983.91236034
2022-09-15T04:24:31.311Z,983.91236034
2022-09-15T04:25:31.645Z,984.013951704
2022-09-15T04:26:31.629Z,983.91236034
2022-09-15T04:27:31.628Z,983.810768976
2022-09-15T04:28:31.214Z,983.810768976
2022-09-15T04:29:31.649Z,983.91236034
2022-09-15T04:30:31.618Z,983.709177612
2022-09-15T04:31:31.767Z,983.709177612
2022-09-15T04:32:31.164Z,984.013951704
2022-09-15T04:33:31.609Z,983.91236034
2022-09-15T04:34:31.649Z,983.709177612
2022-09-15T04:35:31.632Z,983.505994884
2022-09-15T04:36:31.295Z,983.709177612
2022-09-15T04:37:31.628Z,984.013951704
2022-09-15T04:38:31.613Z,983.810768976
2022-09-15T04:39:31.668Z,983.810768976
2022-09-15T04:40:31.195Z,983.91236034
2022-09-15T04:41:31.626Z,983.810768976
2022-09-15T04:42:31.640Z,984.013951704
2022-09-15T04:43:31.610Z,984.013951704
2022-09-15T04:44:31.168Z,983.709177612
2022-09-15T04:45:31.642Z,983.709177612
2022-09-15T04:46:31.648Z,983.607586248
2022-09-15T04:47:31.625Z,983.810768976
2022-09-15T04:48:31.197Z,983.709177612
2022-09-15T04:49:31.637Z,983.91236034
2022-09-15T04:50:31.603Z,983.709177612
2022-09-15T04:51:31.597Z,983.709177612
2022-09-15T04:52:31.136Z,983.810768976
2022-09-15T04:53:31.632Z,983.709177612
2022-09-15T04:54:31.626Z,983.607586248
2022-09-15T04:55:31.626Z,983.91236034
2022-09-15T04:56:31.139Z,983.607586248
2022-09-15T04:57:31.605Z,983.91236034
2022-09-15T04:58:31.595Z,983.810768976
2022-09-15T04:59:31.655Z,983.607586248
2022-09-15T05:00:32.993Z,983.810768976
2022-09-15T05:01:31.661Z,983.505994884
2022-09-15T05:02:31.621Z,983.505994884
2022-09-15T05:03:31.633Z,983.91236034
2022-09-15T05:04:31.086Z,983.607586248
2022-09-15T05:05:31.617Z,983.607586248
2022-09-15T05:06:31.610Z,983.505994884
2022-09-15T05:07:31.630Z,983.810768976
2022-09-15T05:08:31.132Z,983.91236034
2022-09-15T05:09:31.629Z,983.810768976
2022-09-15T05:10:31.619Z,983.709177612
2022-09-15T05:11:31.706Z,983.91236034
2022-09-15T05:12:31.114Z,983.810768976
2022-09-15T05:13:31.609Z,983.607586248
2022-09-15T05:14:31.598Z,983.810768976
2022-09-15T05:15:31.632Z,983.709177612
2022-09-15T05:16:31.242Z,983.810768976
2022-09-15T05:17:31.646Z,983.810768976
2022-09-15T05:18:31.607Z,983.607586248
2022-09-15T05:19:31.681Z,983.810768976
2022-09-15T05:20:32.119Z,983.810768976
2022-09-15T05:21:31.647Z,983.709177612
2022-09-15T05:22:31.571Z,983.91236034
2022-09-15T05:23:31.614Z,983.709177612
2022-09-15T05:24:31.096Z,983.709177612
2022-09-15T05:25:31.632Z,983.607586248
2022-09-15T05:26:31.599Z,983.438267308
2022-09-15T05:27:31.652Z,983.709177612
2022-09-15T05:28:31.117Z,983.607586248
2022-09-15T05:29:31.643Z,983.709177612
2022-09-15T05:30:38.565Z,983.505994884
2022-09-15T05:31:31.823Z,983.607586248
2022-09-15T05:32:31.135Z,983.607586248
2022-09-15T05:33:31.686Z,983.505994884
2022-09-15T05:34:31.655Z,983.505994884
2022-09-15T05:35:31.643Z,983.607586248
2022-09-15T05:36:31.089Z,983.607586248
2022-09-15T05:37:31.572Z,983.505994884
2022-09-15T05:38:31.604Z,983.505994884
2022-09-15T05:39:31.631Z,983.438267308
2022-09-15T05:40:31.085Z,983.438267308
2022-09-15T05:41:31.581Z,983.505994884
2022-09-15T05:42:31.623Z,983.607586248
2022-09-15T05:43:31.622Z,983.607586248
2022-09-15T05:44:31.084Z,983.607586248
2022-09-15T05:45:31.599Z,983.607586248
2022-09-15T05:46:31.682Z,983.505994884
2022-09-15T05:47:31.735Z,983.505994884
2022-09-15T05:48:31.054Z,983.505994884
2022-09-15T05:49:32.044Z,983.607586248
2022-09-15T05:50:31.626Z,983.505994884
2022-09-15T05:51:31.635Z,983.505994884
2022-09-15T05:52:31.087Z,983.505994884
2022-09-15T05:53:31.607Z,983.505994884
2022-09-15T05:54:31.641Z,983.505994884
2022-09-15T05:55:31.643Z,983.505994884
2022-09-15T05:56:31.047Z,983.505994884
2022-09-15T05:57:31.614Z,983.336675944
2022-09-15T05:58:31.616Z,983.505994884
2022-09-15T05:59:31.695Z,983.438267308
2022-09-15T06:00:31.068Z,983.438267308
2022-09-15T06:01:31.685Z,983.438267308
2022-09-15T06:02:31.865Z,983.438267308
2022-09-15T06:03:31.696Z,983.336675944
2022-09-15T06:04:31.082Z,983.336675944
2022-09-15T06:05:31.596Z,983.438267308
2022-09-15T06:06:31.597Z,983.336675944
2022-09-15T06:07:31.800Z,983.505994884
2022-09-15T06:08:31.054Z,983.505994884
2022-09-15T06:09:31.621Z,983.336675944
2022-09-15T06:10:31.627Z,983.505994884
2022-09-15T06:11:31.624Z,983.438267308
2022-09-15T06:12:31.158Z,983.438267308
2022-09-15T06:13:31.655Z,983.336675944
2022-09-15T06:14:31.590Z,983.438267308
2022-09-15T06:15:31.627Z,983.2350845799999
2022-09-15T06:16:31.198Z,983.2350845799999
2022-09-15T06:17:31.593Z,983.133493216
2022-09-15T06:18:31.595Z,983.438267308
2022-09-15T06:19:31.696Z,983.2350845799999
2022-09-15T06:20:31.110Z,983.2350845799999
2022-09-15T06:21:31.712Z,983.336675944
2022-09-15T06:22:31.728Z,983.336675944
2022-09-15T06:23:31.630Z,983.2350845799999
2022-09-15T06:24:31.055Z,983.2350845799999
2022-09-15T06:25:31.594Z,983.336675944
2022-09-15T06:26:31.592Z,983.2350845799999
2022-09-15T06:27:31.635Z,983.336675944
2022-09-15T06:28:30.981Z,983.336675944
2022-09-15T06:29:31.595Z,983.336675944
2022-09-15T06:30:31.603Z,983.505994884
2022-09-15T06:31:31.764Z,983.438267308
2022-09-15T06:32:31.107Z,983.438267308
2022-09-15T06:33:31.617Z,983.607586248
2022-09-15T06:34:31.609Z,983.505994884
2022-09-15T06:35:31.595Z,983.607586248
2022-09-15T06:36:30.968Z,983.607586248
2022-09-15T06:37:31.580Z,983.438267308
2022-09-15T06:38:31.610Z,983.2350845799999
2022-09-15T06:39:31.631Z,983.505994884
2022-09-15T06:40:31.114Z,983.505994884
2022-09-15T06:41:52.433Z,983.438267308
2022-09-15T06:42:31.657Z,983.336675944
2022-09-15T06:43:31.632Z,983.607586248
2022-09-15T06:44:30.968Z,983.607586248
2022-09-15T06:45:31.584Z,983.336675944
2022-09-15T06:46:31.842Z,983.336675944
2022-09-15T06:47:31.668Z,983.336675944
2022-09-15T06:48:31.059Z,983.336675944
2022-09-15T06:49:31.623Z,983.438267308
2022-09-15T06:50:31.626Z,983.505994884
2022-09-15T06:51:31.608Z,983.336675944
2022-09-15T06:52:30.970Z,983.336675944
2022-09-15T06:53:31.618Z,983.505994884
2022-09-15T06:54:31.722Z,983.438267308
2022-09-15T06:55:31.661Z,983.438267308
2022-09-15T06:56:34.477Z,983.438267308
2022-09-15T06:57:31.605Z,983.336675944
2022-09-15T06:58:31.632Z,983.438267308
2022-09-15T06:59:31.630Z,983.438267308
2022-09-15T07:00:30.952Z,983.438267308
2022-09-15T07:01:31.602Z,983.438267308
2022-09-15T07:02:31.860Z,983.438267308
2022-09-15T07:03:31.668Z,983.505994884
2022-09-15T07:04:31.003Z,983.505994884
2022-09-15T07:05:31.609Z,983.505994884
2022-09-15T07:06:31.636Z,983.336675944
2022-09-15T07:07:31.611Z,983.607586248
2022-09-15T07:08:31.164Z,983.607586248
2022-09-15T07:09:31.610Z,983.336675944
2022-09-15T07:10:31.677Z,983.336675944
2022-09-15T07:11:31.648Z,983.438267308
2022-09-15T07:12:30.940Z,983.438267308
2022-09-15T07:13:31.642Z,983.438267308
2022-09-15T07:14:31.605Z,983.336675944
2022-09-15T07:15:31.617Z,983.438267308
2022-09-15T07:16:31.120Z,983.438267308
2022-09-15T07:17:31.627Z,983.438267308
2022-09-15T07:18:31.609Z,983.336675944
2022-09-15T07:19:31.671Z,983.505994884
2022-09-15T07:20:31.070Z,983.505994884
2022-09-15T07:21:31.600Z,983.2350845799999
2022-09-15T07:22:31.600Z,983.2350845799999
2022-09-15T07:23:31.639Z,983.2350845799999
2022-09-15T07:24:30.982Z,983.2350845799999
2022-09-15T07:25:31.619Z,983.031901852
2022-09-15T07:26:31.580Z,983.031901852
2022-09-15T07:27:31.600Z,983.031901852
2022-09-15T07:28:30.956Z,983.031901852
2022-09-15T07:29:35.868Z,983.031901852
2022-09-15T07:30:31.595Z,983.336675944
2022-09-15T07:31:31.718Z,983.133493216
2022-09-15T07:32:31.047Z,983.133493216
2022-09-15T07:33:31.640Z,982.8287191239999
2022-09-15T07:34:31.600Z,983.031901852
2022-09-15T07:35:31.651Z,983.133493216
2022-09-15T07:36:30.985Z,983.133493216
2022-09-15T07:37:31.596Z,983.2350845799999
2022-09-15T07:38:31.617Z,982.9303104879999
2022-09-15T07:39:31.600Z,983.031901852
2022-09-15T07:40:31.059Z,983.031901852
2022-09-15T07:41:31.654Z,983.2350845799999
2022-09-15T07:42:35.282Z,983.133493216
2022-09-15T07:43:31.597Z,982.9303104879999
2022-09-15T07:44:31.739Z,983.336675944
2022-09-15T07:45:31.660Z,982.9303104879999
2022-09-15T07:46:31.705Z,983.133493216
2022-09-15T07:47:31.647Z,983.031901852
2022-09-15T07:48:31.605Z,983.031901852
2022-09-15T07:49:31.647Z,982.9303104879999
2022-09-15T07:50:31.693Z,983.031901852
2022-09-15T07:51:31.659Z,982.9303104879999
2022-09-15T07:52:30.889Z,982.9303104879999
2022-09-15T07:53:31.610Z,982.9303104879999
2022-09-15T07:54:31.668Z,983.031901852
2022-09-15T07:55:31.654Z,982.9303104879999
2022-09-15T07:56:30.916Z,982.9303104879999
2022-09-15T07:57:31.601Z,983.133493216
2022-09-15T07:58:31.611Z,982.9303104879999
2022-09-15T07:59:31.599Z,982.9303104879999
2022-09-15T08:00:31.667Z,982.8287191239999
2022-09-15T08:01:31.680Z,983.031901852
2022-09-15T08:02:31.667Z,982.9303104879999
2022-09-15T08:03:31.637Z,982.9303104879999
2022-09-15T08:04:31.646Z,983.031901852
2022-09-15T08:05:33.760Z,982.8287191239999
2022-09-15T08:06:31.627Z,982.9303104879999
2022-09-15T08:07:31.618Z,983.031901852
2022-09-15T08:08:31.633Z,983.031901852
2022-09-15T08:09:31.620Z,983.031901852
2022-09-15T08:10:31.614Z,982.9303104879999
2022-09-15T08:11:31.654Z,983.133493216
2022-09-15T08:12:31.613Z,983.133493216
2022-09-15T08:13:31.584Z,982.9303104879999
2022-09-15T08:14:31.664Z,982.9303104879999
2022-09-15T08:15:31.607Z,983.031901852
2022-09-15T08:16:31.702Z,982.8287191239999
2022-09-15T08:17:31.599Z,982.9303104879999
2022-09-15T08:18:31.603Z,982.8287191239999
2022-09-15T08:19:31.634Z,982.9303104879999
2022-09-15T08:20:31.576Z,982.8287191239999
2022-09-15T08:21:31.624Z,982.8287191239999
2022-09-15T08:22:31.626Z,982.9303104879999
2022-09-15T08:23:31.594Z,982.72712776
2022-09-15T08:24:31.594Z,982.8287191239999
2022-09-15T08:25:31.655Z,982.72712776
2022-09-15T08:26:31.624Z,982.8287191239999
2022-09-15T08:27:31.627Z,982.9303104879999
2022-09-15T08:28:31.582Z,982.9303104879999
2022-09-15T08:29:31.607Z,982.8287191239999
2022-09-15T08:30:31.588Z,983.031901852
2022-09-15T08:31:31.690Z,982.72712776
2022-09-15T08:32:31.555Z,982.9303104879999
2022-09-15T08:33:31.597Z,982.9303104879999
2022-09-15T08:34:31.595Z,982.72712776
2022-09-15T08:35:31.611Z,982.72712776
2022-09-15T08:36:31.620Z,982.9303104879999
2022-09-15T08:37:31.600Z,982.9303104879999
2022-09-15T08:38:31.611Z,982.9303104879999
2022-09-15T08:39:31.615Z,982.9303104879999
2022-09-15T08:40:31.758Z,983.133493216
2022-09-15T08:41:31.661Z,983.031901852
2022-09-15T08:42:31.625Z,983.031901852
2022-09-15T08:43:31.587Z,982.9303104879999
2022-09-15T08:44:31.613Z,983.133493216
2022-09-15T08:45:31.610Z,982.9303104879999
2022-09-15T08:46:31.669Z,982.8287191239999
2022-09-15T08:47:31.702Z,982.8287191239999
2022-09-15T08:48:31.564Z,983.133493216
2022-09-15T08:49:50.412Z,982.9303104879999
2022-09-15T08:50:31.672Z,982.9303104879999
2022-09-15T08:51:31.662Z,983.133493216
2022-09-15T08:52:31.619Z,982.8287191239999
2022-09-15T08:53:31.607Z,983.031901852
2022-09-15T08:54:31.632Z,982.72712776
2022-09-15T08:55:31.591Z,982.8287191239999
2022-09-15T08:56:31.600Z,982.8287191239999
2022-09-15T08:57:31.580Z,983.031901852
2022-09-15T08:58:31.608Z,982.72712776
2022-09-15T08:59:31.624Z,982.8287191239999
2022-09-15T09:00:31.586Z,982.9303104879999
2022-09-15T09:01:31.701Z,982.9303104879999
2022-09-15T09:02:31.727Z,982.8287191239999
2022-09-15T09:03:31.592Z,982.8287191239999
2022-09-15T09:04:31.555Z,982.8287191239999
2022-09-15T09:05:31.607Z,982.8287191239999
2022-09-15T09:06:31.613Z,982.72712776
2022-09-15T09:07:31.638Z,982.8287191239999
2022-09-15T09:08:31.575Z,982.72712776
2022-09-15T09:09:31.586Z,982.9303104879999
2022-09-15T09:10:31.593Z,982.72712776
2022-09-15T09:11:31.590Z,982.8287191239999
2022-09-15T09:12:31.679Z,982.72712776
2022-09-15T09:13:35.341Z,982.8287191239999
2022-09-15T09:14:31.602Z,982.5239450319999
2022-09-15T09:15:31.666Z,982.72712776
2022-09-15T09:16:31.651Z,982.72712776
2022-09-15T09:17:31.543Z,982.72712776
2022-09-15T09:18:31.760Z,982.72712776
2022-09-15T09:19:32.466Z,982.8287191239999
2022-09-15T09:20:31.614Z,982.8287191239999
2022-09-15T09:21:31.603Z,983.031901852
2022-09-15T09:22:31.837Z,982.8287191239999
2022-09-15T09:23:31.613Z,982.8287191239999
2022-09-15T09:24:31.575Z,982.72712776
2022-09-15T09:25:31.582Z,982.9303104879999
2022-09-15T09:26:31.577Z,982.8287191239999
2022-09-15T09:27:31.605Z,982.8287191239999
2022-09-15T09:28:31.578Z,982.8287191239999
2022-09-15T09:29:31.633Z,983.031901852
2022-09-15T09:30:31.591Z,982.72712776
2022-09-15T09:31:31.651Z,982.9303104879999
2022-09-15T09:32:31.558Z,983.031901852
2022-09-15T09:33:31.631Z,982.9303104879999
2022-09-15T09:34:31.576Z,982.6255363959999
2022-09-15T09:35:31.610Z,983.031901852
2022-09-15T09:36:31.578Z,982.6255363959999
2022-09-15T09:37:31.617Z,982.8287191239999
2022-09-15T09:38:31.573Z,982.8287191239999
2022-09-15T09:39:31.586Z,982.5239450319999
2022-09-15T09:40:31.894Z,982.9303104879999
2022-09-15T09:41:31.596Z,982.72712776
2022-09-15T09:42:31.573Z,982.8287191239999
2022-09-15T09:43:31.595Z,982.8287191239999
2022-09-15T09:44:31.865Z,982.8287191239999
2022-09-15T09:45:31.589Z,982.8287191239999
2022-09-15T09:46:31.690Z,982.9303104879999
2022-09-15T09:47:31.603Z,982.72712776
2022-09-15T09:48:31.730Z,982.8287191239999
2022-09-15T09:49:31.605Z,982.72712776
2022-09-15T09:50:31.577Z,982.72712776
2022-09-15T09:51:31.629Z,982.8287191239999
2022-09-15T09:52:31.577Z,982.8287191239999
2022-09-15T09:53:31.631Z,982.72712776
2022-09-15T09:54:31.680Z,982.72712776
2022-09-15T09:55:31.584Z,982.72712776
2022-09-15T09:56:31.739Z,982.72712776